Time;durP1;ratioP1;P1;durP2;ratioP2;P2;SDS_P1;SDS_P2;PMS_P1;PMS_P2;Temp;Humidity;BMP_temperature;BMP_pressure;BME280_temperature;BME280_humidity;BME280_pressure;Samples;Min_cycle;Max_cycle;Signal;HPM_P1;HPM_P2
2023/02/21 02:15:09;;;;;;;5.00;4.20;;;;;;;7.07;88.63;98728.42;219106;1256;138934;-69
2023/02/21 02:20:32;;;;;;;4.00;3.30;;;;;;;7.11;88.76;98719.70;218620;1257;139583;-68
2023/02/21 02:26:05;;;;;;;5.00;4.20;;;;;;;7.16;88.36;98718.00;218928;1256;139874;-66
2023/02/21 02:31:20;;;;;;;3.90;3.60;;;;;;;7.19;88.49;98711.49;219164;1255;141582;-67
2023/02/21 02:36:39;;;;;;;3.60;3.30;;;;;;;7.21;88.46;98721.81;218076;1257;141381;-66
2023/02/21 02:42:08;;;;;;;4.10;3.30;;;;;;;7.22;88.05;98730.58;217567;1256;139884;-66
2023/02/21 02:47:21;;;;;;;3.40;3.10;;;;;;;7.23;88.65;98727.67;219068;1258;139229;-67
2023/02/21 02:52:24;;;;;;;2.60;2.40;;;;;;;7.26;88.42;98733.42;220265;1256;140210;-67
2023/02/21 02:57:39;;;;;;;2.40;2.20;;;;;;;7.26;88.34;98729.42;220493;1256;139409;-67
2023/02/21 03:03:00;;;;;;;2.50;2.30;;;;;;;7.28;88.25;98730.42;219642;1256;139697;-67
2023/02/21 03:08:25;;;;;;;2.90;2.40;;;;;;;7.33;88.08;98720.23;218234;1257;139696;-69
2023/02/21 03:13:51;;;;;;;2.10;2.00;;;;;;;7.36;88.01;98725.34;217808;1258;139147;-68
2023/02/21 03:19:07;;;;;;;1.60;1.50;;;;;;;7.33;88.00;98733.70;218154;1259;139121;-66
2023/02/21 03:24:15;;;;;;;1.30;1.20;;;;;;;7.35;87.88;98733.71;219125;1256;140314;-67
2023/02/21 03:29:18;;;;;;;1.30;1.30;;;;;;;7.36;87.64;98739.13;218436;1256;138882;-67
2023/02/21 03:34:22;;;;;;;1.70;1.60;;;;;;;7.37;88.00;98735.39;217698;1256;231081;-68
2023/02/21 03:39:25;;;;;;;2.00;1.40;;;;;;;7.41;87.30;98734.31;217555;1256;139332;-69
2023/02/21 03:44:28;;;;;;;2.60;1.90;;;;;;;7.38;87.63;98730.11;217688;1255;140790;-69
2023/02/21 03:49:30;;;;;;;2.40;1.80;;;;;;;7.32;87.86;98729.64;217534;1257;138718;-68
2023/02/21 03:54:32;;;;;;;2.10;1.90;;;;;;;7.27;87.52;98718.23;217666;1256;139226;-67
2023/02/21 03:59:35;;;;;;;2.40;2.10;;;;;;;7.22;87.85;98723.79;217628;1256;139029;-66
2023/02/21 04:04:38;;;;;;;2.40;2.10;;;;;;;7.18;88.10;98716.78;218500;1256;139655;-66
2023/02/21 04:09:42;;;;;;;3.10;2.40;;;;;;;7.18;88.39;98718.25;217639;1256;139666;-67
2023/02/21 04:14:45;;;;;;;2.30;2.10;;;;;;;7.15;88.12;98720.36;217989;1259;139381;-67
2023/02/21 04:19:48;;;;;;;1.60;1.50;;;;;;;7.13;88.27;98711.59;218166;1256;140050;-67
2023/02/21 04:24:51;;;;;;;2.30;2.10;;;;;;;7.15;87.95;98715.05;218889;1255;138927;-66
2023/02/21 04:29:55;;;;;;;2.00;1.80;;;;;;;7.17;88.16;98710.29;218723;1256;141440;-65
2023/02/21 04:34:58;;;;;;;3.50;2.20;;;;;;;7.19;88.33;98723.73;218218;1256;140551;-65
2023/02/21 04:40:01;;;;;;;5.10;2.10;;;;;;;7.22;88.16;98729.41;218553;1255;139800;-67
2023/02/21 04:45:04;;;;;;;2.00;1.80;;;;;;;7.22;87.96;98731.58;219058;1255;139181;-67
2023/02/21 04:50:08;;;;;;;2.40;2.20;;;;;;;7.21;88.22;98733.89;218124;1255;139957;-66
2023/02/21 04:55:10;;;;;;;1.10;1.00;;;;;;;7.18;87.98;98741.62;220376;1255;140331;-67
2023/02/21 05:00:15;;;;;;;0.70;0.70;;;;;;;7.13;87.64;98734.00;218946;1255;139348;-67
2023/02/21 05:05:18;;;;;;;1.20;1.10;;;;;;;7.06;87.82;98739.07;217657;1259;151250;-69
2023/02/21 05:10:21;;;;;;;1.40;0.40;;;;;;;7.01;87.59;98739.94;219248;1255;139743;-69
2023/02/21 05:15:25;;;;;;;1.20;0.60;;;;;;;6.97;87.39;98743.98;217538;1259;139365;-69
2023/02/21 05:20:27;;;;;;;0.70;0.60;;;;;;;6.92;86.65;98754.91;217386;1255;139813;-68
2023/02/21 05:25:30;;;;;;;1.80;0.60;;;;;;;6.90;86.35;98751.54;217536;1256;139603;-68
2023/02/21 05:30:34;;;;;;;0.70;0.40;;;;;;;6.87;85.94;98760.11;218262;1255;139374;-68
2023/02/21 05:35:38;;;;;;;2.50;0.40;;;;;;;6.84;85.24;98760.63;217475;1256;140683;-69
2023/02/21 05:40:41;;;;;;;1.80;0.70;;;;;;;6.79;84.83;98771.11;217251;1256;139204;-69
2023/02/21 05:45:45;;;;;;;1.20;0.40;;;;;;;6.75;84.24;98780.15;217734;1256;139833;-67
2023/02/21 05:50:47;;;;;;;4.30;0.90;;;;;;;6.65;83.65;98773.42;217960;1256;139993;-68
2023/02/21 05:55:49;;;;;;;3.00;0.70;;;;;;;6.54;83.25;98784.20;217672;1258;140522;-69
2023/02/21 06:00:53;;;;;;;1.50;0.70;;;;;;;6.49;83.37;98801.98;217739;1256;139361;-69
2023/02/21 06:05:58;;;;;;;0.90;0.70;;;;;;;6.46;83.06;98811.60;217586;1256;139242;-69
2023/02/21 06:11:02;;;;;;;1.10;0.50;;;;;;;6.45;82.24;98822.44;217627;1256;139243;-69
2023/02/21 06:16:06;;;;;;;3.80;0.50;;;;;;;6.45;82.18;98828.63;217569;1256;139649;-69
2023/02/21 06:21:09;;;;;;;4.20;0.70;;;;;;;6.45;82.00;98837.58;217549;1259;139607;-69
2023/02/21 06:26:13;;;;;;;3.50;1.10;;;;;;;6.45;81.99;98852.98;218511;1256;141293;-69
2023/02/21 06:31:19;;;;;;;1.40;0.90;;;;;;;6.48;81.35;98858.14;217306;1256;139292;-69
2023/02/21 06:36:25;;;;;;;1.40;1.10;;;;;;;6.50;81.32;98855.11;217560;1256;139922;-69
2023/02/21 06:41:30;;;;;;;4.10;1.10;;;;;;;6.52;80.89;98867.05;220328;1258;140734;-72
2023/02/21 06:46:36;;;;;;;1.00;0.70;;;;;;;6.55;80.55;98874.09;220359;1256;140738;-72
2023/02/21 06:51:42;;;;;;;1.50;1.00;;;;;;;6.59;80.28;98883.67;219138;1256;140569;-71
2023/02/21 06:56:46;;;;;;;4.50;1.70;;;;;;;6.64;79.99;98885.75;218371;1256;140390;-70
2023/02/21 07:01:49;;;;;;;4.60;0.80;;;;;;;6.63;79.73;98891.88;217820;1259;138937;-76
2023/02/21 07:06:53;;;;;;;1.10;1.00;;;;;;;6.68;79.23;98908.63;217559;1259;139745;-67
2023/02/21 07:11:57;;;;;;;2.00;0.90;;;;;;;6.77;79.01;98918.56;217919;1256;139253;-67
2023/02/21 07:16:59;;;;;;;1.90;0.90;;;;;;;6.99;78.65;98919.81;218996;1256;142154;-67
2023/02/21 07:22:02;;;;;;;4.20;0.70;;;;;;;7.65;77.98;98928.12;218528;1260;222493;-67
2023/02/21 07:27:06;;;;;;;5.90;0.80;;;;;;;8.58;77.38;98925.15;217703;1256;139380;-68
2023/02/21 07:32:08;;;;;;;4.60;1.40;;;;;;;9.30;75.81;98932.33;218539;1256;138539;-67
2023/02/21 07:37:12;;;;;;;4.60;1.40;;;;;;;9.67;74.57;98937.49;217748;1256;139477;-67
2023/02/21 07:42:15;;;;;;;3.10;1.30;;;;;;;9.23;73.15;98926.45;217701;1260;138966;-67
2023/02/21 07:47:18;;;;;;;5.00;1.50;;;;;;;9.43;73.15;98928.67;217845;1259;138800;-68
2023/02/21 07:52:21;;;;;;;4.20;1.30;;;;;;;9.84;72.63;98925.81;218194;1256;139996;-70
2023/02/21 07:57:24;;;;;;;5.60;1.20;;;;;;;10.12;71.73;98931.22;218112;1256;150725;-70
2023/02/21 08:02:28;;;;;;;2.60;1.30;;;;;;;10.23;71.20;98953.25;217744;1256;139065;-73
2023/02/21 08:07:31;;;;;;;2.10;0.90;;;;;;;10.21;70.25;98961.85;217892;1256;139292;-71
2023/02/21 08:12:35;;;;;;;4.10;1.00;;;;;;;10.06;69.80;98964.71;217509;1256;139648;-69
2023/02/21 08:17:38;;;;;;;2.30;0.80;;;;;;;9.93;69.55;98972.56;217565;1256;139596;-70
2023/02/21 08:22:42;;;;;;;5.20;1.60;;;;;;;10.00;69.20;98980.95;217715;1259;138626;-70
2023/02/21 08:27:52;;;;;;;6.30;1.20;;;;;;;9.88;68.54;98982.94;217847;1256;139609;-68
2023/02/21 08:32:56;;;;;;;9.00;2.00;;;;;;;9.50;68.08;98995.21;217499;1256;390971;-69
2023/02/21 08:38:03;;;;;;;3.60;1.20;;;;;;;9.17;68.33;99010.17;218606;1259;138994;-69
2023/02/21 08:43:07;;;;;;;5.60;1.30;;;;;;;8.91;68.53;99021.52;220493;1256;139725;-70
2023/02/21 08:48:11;;;;;;;2.90;2.10;;;;;;;8.72;68.53;99026.15;219309;1256;138705;-71
2023/02/21 08:53:15;;;;;;;5.80;2.20;;;;;;;8.64;68.67;99035.93;220240;1256;139116;-70
2023/02/21 08:58:18;;;;;;;3.20;1.50;;;;;;;8.56;68.81;99035.95;219054;1258;138667;-70
2023/02/21 09:03:19;;;;;;;4.00;1.00;;;;;;;8.52;68.41;99037.38;220486;1256;138518;-71
2023/02/21 09:08:25;;;;;;;3.80;1.60;;;;;;;8.61;68.12;99040.13;218817;1256;138771;-70
2023/02/21 09:13:33;;;;;;;3.90;1.50;;;;;;;8.78;68.24;99041.60;218602;1256;139222;-71
2023/02/21 09:18:37;;;;;;;12.50;2.50;;;;;;;8.84;67.87;99045.27;217522;1258;139453;-72
2023/02/21 09:23:39;;;;;;;5.70;1.70;;;;;;;8.78;67.83;99049.33;217796;1256;140086;-70
2023/02/21 09:28:42;;;;;;;13.00;3.80;;;;;;;8.66;67.54;99055.05;217835;1255;139133;-71
2023/02/21 09:33:45;;;;;;;5.80;1.40;;;;;;;8.61;67.60;99060.54;217676;1256;139895;-71
2023/02/21 09:38:49;;;;;;;3.00;1.60;;;;;;;8.50;67.57;99071.77;217562;1260;138979;-69
2023/02/21 09:43:53;;;;;;;6.20;1.60;;;;;;;8.54;67.95;99084.70;217728;1257;140308;-69
2023/02/21 09:48:57;;;;;;;6.30;1.50;;;;;;;8.61;67.99;99072.80;217555;1259;139094;-74
2023/02/21 09:54:02;;;;;;;3.50;2.20;;;;;;;8.76;68.07;99082.49;217487;1255;139737;-73
2023/02/21 09:59:11;;;;;;;9.40;3.20;;;;;;;8.85;67.80;99083.71;217397;1260;139579;-73
2023/02/21 10:04:29;;;;;;;8.20;2.40;;;;;;;8.76;67.86;99094.71;217534;1260;138458;-71
2023/02/21 10:09:45;;;;;;;6.30;2.70;;;;;;;8.78;67.76;99102.15;217275;1259;139056;-70
2023/02/21 10:15:09;;;;;;;5.50;2.50;;;;;;;8.70;67.40;99110.08;217283;1259;139501;-72
2023/02/21 10:20:37;;;;;;;3.10;1.60;;;;;;;8.81;67.68;99121.59;217556;1260;139423;-73
2023/02/21 10:25:45;;;;;;;3.70;1.20;;;;;;;8.94;67.19;99120.50;218400;1256;138690;-72
2023/02/21 10:30:54;;;;;;;4.70;3.60;;;;;;;8.99;66.88;99113.20;217742;1257;138709;-67
2023/02/21 10:35:58;;;;;;;3.10;1.80;;;;;;;8.99;66.80;99114.73;218817;1256;138717;-71
2023/02/21 10:41:04;;;;;;;5.50;2.10;;;;;;;8.97;66.73;99127.67;218133;1256;139179;-69
2023/02/21 10:46:22;;;;;;;2.60;1.40;;;;;;;8.93;66.58;99125.21;217587;1259;139598;-69
2023/02/21 10:51:32;;;;;;;12.60;2.00;;;;;;;8.85;66.29;99137.52;220442;1257;140215;-69
2023/02/21 10:56:38;;;;;;;5.20;2.40;;;;;;;8.80;66.12;99139.18;219350;1256;139996;-67
2023/02/21 11:01:46;;;;;;;7.30;2.20;;;;;;;8.71;66.19;99144.06;218989;1256;139700;-69
2023/02/21 11:06:50;;;;;;;7.60;2.40;;;;;;;8.70;66.20;99143.11;218738;1256;140582;-67
2023/02/21 11:12:06;;;;;;;3.20;1.20;;;;;;;8.58;65.82;99146.30;220412;1256;138725;-72
2023/02/21 11:17:14;;;;;;;3.40;1.30;;;;;;;8.53;66.07;99149.33;218174;1256;139167;-70
2023/02/21 11:22:23;;;;;;;4.30;2.20;;;;;;;8.50;66.10;99158.46;217939;1256;138477;-68
2023/02/21 11:27:31;;;;;;;9.80;2.10;;;;;;;8.48;66.31;99159.11;218544;1256;139082;-69
2023/02/21 11:32:39;;;;;;;6.00;2.70;;;;;;;8.43;66.41;99160.17;217881;1258;138370;-70
2023/02/21 11:37:58;;;;;;;8.30;2.00;;;;;;;8.35;66.42;99166.91;218306;1256;138469;-66
2023/02/21 11:43:16;;;;;;;8.70;2.00;;;;;;;8.36;66.59;99168.48;217576;1260;138568;-69
2023/02/21 11:48:29;;;;;;;4.50;1.50;;;;;;;8.32;66.35;99169.11;218545;1260;140586;-72
2023/02/21 11:53:41;;;;;;;5.50;2.40;;;;;;;8.20;66.33;99180.39;217705;1260;140189;-67
2023/02/21 11:58:57;;;;;;;6.40;2.90;;;;;;;8.11;66.55;99191.07;218700;1260;138945;-67
2023/02/21 12:04:29;;;;;;;12.80;2.40;;;;;;;8.05;66.67;99190.51;217789;1256;138373;-67
2023/02/21 12:09:46;;;;;;;9.20;3.50;;;;;;;8.02;67.01;99202.73;218517;1256;138747;-66
2023/02/21 12:15:08;;;;;;;6.20;2.40;;;;;;;7.96;67.29;99207.27;217715;1260;138385;-68
2023/02/21 12:20:24;;;;;;;4.90;2.10;;;;;;;8.02;67.42;99206.45;218593;1256;139800;-65
2023/02/21 12:26:21;;;;;;;12.40;2.80;;;;;;;8.10;67.01;99210.52;217507;1260;139949;-66
2023/02/21 12:31:59;;;;;;;17.70;3.70;;;;;;;8.27;67.27;99204.49;218707;1256;139234;-66
2023/02/21 12:37:16;;;;;;;3.60;1.60;;;;;;;8.44;67.11;99208.22;219553;1256;139417;-68
2023/02/21 12:42:43;;;;;;;6.00;2.20;;;;;;;8.53;66.55;99208.53;218480;1256;139434;-69
2023/02/21 12:48:25;;;;;;;9.70;2.50;;;;;;;8.48;66.11;99210.80;219781;1259;139449;-69
2023/02/21 12:53:35;;;;;;;5.90;2.50;;;;;;;8.45;66.14;99209.35;220238;1257;138870;-67
2023/02/21 12:58:49;;;;;;;6.40;3.30;;;;;;;8.45;66.21;99212.52;220437;1257;141838;-68
2023/02/21 13:04:17;;;;;;;8.60;3.20;;;;;;;8.40;65.80;99208.77;218224;1256;140042;-68
2023/02/21 13:09:35;;;;;;;8.10;3.00;;;;;;;8.31;65.65;99211.33;217443;1260;138792;-68
2023/02/21 13:15:11;;;;;;;20.60;4.90;;;;;;;8.16;65.81;99221.40;217574;1258;140871;-68
2023/02/21 13:20:20;;;;;;;17.60;5.80;;;;;;;8.13;66.17;99222.90;218641;1259;139724;-70
2023/02/21 13:25:43;;;;;;;12.30;4.50;;;;;;;8.13;66.19;99226.85;218566;1256;139725;-70
2023/02/21 13:30:51;;;;;;;10.90;4.90;;;;;;;8.06;65.95;99232.10;217307;1261;140832;-70
2023/02/21 13:35:59;;;;;;;13.20;5.10;;;;;;;8.05;66.58;99238.38;217624;1256;140320;-69
2023/02/21 13:41:16;;;;;;;10.00;3.40;;;;;;;7.92;66.48;99239.90;217491;1256;138936;-69
2023/02/21 13:46:44;;;;;;;9.50;2.50;;;;;;;7.80;66.44;99250.31;217529;1257;140633;-68
2023/02/21 13:51:51;;;;;;;9.40;2.70;;;;;;;7.68;66.41;99250.77;217568;1256;138999;-68
2023/02/21 13:56:55;;;;;;;25.10;4.30;;;;;;;7.61;66.54;99262.08;217687;1260;139478;-69
2023/02/21 14:02:25;;;;;;;12.10;5.40;;;;;;;7.56;66.70;99261.86;217781;1260;139287;-69
2023/02/21 14:07:47;;;;;;;7.90;3.20;;;;;;;7.53;66.53;99258.72;217734;1260;244124;-70
2023/02/21 14:13:03;;;;;;;11.60;3.50;;;;;;;7.46;66.94;99262.52;217511;1261;139643;-71
2023/02/21 14:18:15;;;;;;;11.50;3.50;;;;;;;7.45;66.90;99263.77;217986;1258;139499;-69
2023/02/21 14:23:22;;;;;;;6.60;2.70;;;;;;;7.43;66.99;99270.29;217605;1261;138735;-69
2023/02/21 14:28:45;;;;;;;;;;;;;;;7.39;66.97;99270.94;217673;1260;141150;-70
2023/02/21 14:33:50;;;;;;;9.20;3.10;;;;;;;7.32;67.08;99278.96;218121;1260;125838;-69
2023/02/21 14:38:53;;;;;;;8.00;4.10;;;;;;;7.29;67.22;99283.30;218410;1256;139487;-68
2023/02/21 14:44:02;;;;;;;5.30;2.00;;;;;;;7.24;67.12;99285.43;217731;1260;138366;-69
2023/02/21 14:49:23;;;;;;;10.80;2.90;;;;;;;7.21;67.14;99295.63;220440;1256;139994;-69
2023/02/21 14:55:02;;;;;;;8.80;2.70;;;;;;;7.24;67.16;99299.63;220142;1258;139208;-69
2023/02/21 15:00:20;;;;;;;8.00;4.30;;;;;;;7.24;67.43;99303.26;217681;1260;140004;-69
2023/02/21 15:05:52;;;;;;;11.90;3.20;;;;;;;7.20;67.44;99306.52;218425;1258;140254;-69
2023/02/21 15:11:04;;;;;;;12.80;3.70;;;;;;;7.15;67.04;99316.98;217646;1256;140071;-69
2023/02/21 15:16:10;;;;;;;10.50;3.90;;;;;;;7.12;67.53;99321.66;217850;1261;138813;-69
2023/02/21 15:21:17;;;;;;;8.40;3.10;;;;;;;7.10;67.67;99328.61;217794;1260;140577;-68
2023/02/21 15:26:28;;;;;;;7.60;2.40;;;;;;;7.07;67.70;99339.13;217779;1260;138700;-69
2023/02/21 15:31:49;;;;;;;12.80;5.00;;;;;;;7.03;67.77;99341.41;217838;1257;139384;-68
2023/02/21 15:37:07;;;;;;;13.60;3.40;;;;;;;7.02;67.67;99349.35;217949;1260;139708;-68
2023/02/21 15:42:16;;;;;;;17.30;5.10;;;;;;;6.98;67.57;99358.33;217490;1260;139428;-68
2023/02/21 15:47:22;;;;;;;8.20;4.10;;;;;;;6.92;67.90;99353.66;218038;1260;138561;-64
2023/02/21 15:52:35;;;;;;;10.70;3.70;;;;;;;6.84;67.50;99362.25;217600;1260;139688;-69
2023/02/21 15:57:41;;;;;;;5.30;2.70;;;;;;;6.75;68.16;99369.73;217664;1260;141090;-67
2023/02/21 16:02:48;;;;;;;6.90;2.80;;;;;;;6.67;67.91;99373.89;217521;1256;138541;-68
2023/02/21 16:07:55;;;;;;;9.50;3.40;;;;;;;6.67;68.13;99375.96;217611;1261;140002;-68
2023/02/21 16:13:03;;;;;;;12.40;4.80;;;;;;;6.66;68.65;99380.58;217885;1257;139252;-68
2023/02/21 16:18:15;;;;;;;12.80;4.70;;;;;;;6.65;68.91;99388.81;218093;1257;139196;-69
2023/02/21 16:23:30;;;;;;;18.00;6.20;;;;;;;6.63;68.58;99394.30;218963;1256;139073;-66
2023/02/21 16:28:33;;;;;;;10.80;4.10;;;;;;;6.59;68.72;99405.29;219774;1257;139237;-67
2023/02/21 16:33:37;;;;;;;8.60;3.10;;;;;;;6.56;68.83;99406.58;218968;1257;138811;-67
2023/02/21 16:38:41;;;;;;;7.90;3.00;;;;;;;6.56;68.88;99413.36;218370;1258;138980;-66
2023/02/21 16:43:48;;;;;;;13.50;3.90;;;;;;;6.54;68.93;99421.38;220539;1257;138711;-68
2023/02/21 16:48:54;;;;;;;11.60;3.40;;;;;;;6.51;69.04;99424.61;220405;1257;139572;-67
2023/02/21 16:54:02;;;;;;;12.90;4.90;;;;;;;6.51;69.36;99431.82;219471;1257;139671;-65
2023/02/21 16:59:08;;;;;;;;;;;;;;;6.48;69.33;99443.33;219680;1257;138666;-66
2023/02/21 17:04:21;;;;;;;9.50;3.10;;;;;;;6.46;68.91;99445.70;219736;1257;125558;-65
2023/02/21 17:09:29;;;;;;;8.80;2.70;;;;;;;6.47;69.50;99458.33;218848;1259;138847;-68
2023/02/21 17:14:33;;;;;;;8.40;3.30;;;;;;;6.45;69.40;99458.23;217359;1260;140505;-70
2023/02/21 17:19:39;;;;;;;9.60;3.80;;;;;;;6.38;69.49;99465.70;217623;1257;139164;-72
2023/02/21 17:24:43;;;;;;;13.20;3.80;;;;;;;6.34;69.81;99469.14;217453;1260;139874;-68
2023/02/21 17:29:47;;;;;;;13.40;4.30;;;;;;;6.31;70.08;99482.11;218441;1257;139290;-67
2023/02/21 17:34:50;;;;;;;17.00;4.50;;;;;;;6.26;70.17;99487.30;217843;1257;138942;-69
2023/02/21 17:39:55;;;;;;;8.70;2.90;;;;;;;6.20;70.07;99493.32;217690;1257;139472;-70
2023/02/21 17:45:00;;;;;;;7.20;3.50;;;;;;;6.16;70.40;99497.98;217683;1257;139881;-65
2023/02/21 17:50:10;;;;;;;11.70;4.00;;;;;;;6.15;70.36;99503.36;217707;1260;138749;-66
2023/02/21 17:55:24;;;;;;;10.20;4.40;;;;;;;6.17;70.51;99506.44;217318;1257;139792;-66
2023/02/21 18:00:29;;;;;;;10.00;5.10;;;;;;;6.16;70.25;99504.78;217458;1257;139222;-64
2023/02/21 18:05:34;;;;;;;16.10;3.90;;;;;;;6.11;70.86;99509.73;218128;1259;139009;-66
2023/02/21 18:10:44;;;;;;;8.30;3.90;;;;;;;6.05;71.01;99509.66;219478;1257;139502;-69
2023/02/21 18:15:50;;;;;;;14.50;4.40;;;;;;;6.07;71.11;99516.08;218463;1259;139049;-65
2023/02/21 18:20:58;;;;;;;17.90;4.40;;;;;;;6.11;70.94;99513.45;217473;1257;139933;-66
2023/02/21 18:26:03;;;;;;;13.10;4.20;;;;;;;6.13;71.39;99518.56;218675;1257;140257;-66
2023/02/21 18:31:07;;;;;;;15.00;3.80;;;;;;;6.10;71.21;99522.30;220337;1256;138865;-66
2023/02/21 18:36:16;;;;;;;15.30;3.80;;;;;;;6.07;71.50;99523.65;217734;1258;138923;-64
2023/02/21 18:41:22;;;;;;;17.50;4.00;;;;;;;6.08;71.03;99527.84;217341;1258;139655;-72
2023/02/21 18:46:26;;;;;;;10.30;4.60;;;;;;;6.13;71.29;99529.84;219533;1257;142051;-67
2023/02/21 18:51:34;;;;;;;21.70;6.80;;;;;;;6.13;71.48;99535.98;218717;1257;138735;-68
2023/02/21 18:56:48;;;;;;;20.10;5.80;;;;;;;6.12;71.18;99541.94;220228;1257;140159;-68
2023/02/21 19:01:55;;;;;;;13.40;4.30;;;;;;;6.09;71.21;99542.95;219133;1257;140458;-68
2023/02/21 19:07:04;;;;;;;15.20;4.80;;;;;;;6.09;71.17;99548.11;216954;1257;139882;-68
2023/02/21 19:12:09;;;;;;;12.90;6.10;;;;;;;6.10;71.44;99555.23;217600;1256;140446;-67
2023/02/21 19:17:14;;;;;;;6.90;3.40;;;;;;;6.06;71.16;99559.04;217609;1260;140158;-67
2023/02/21 19:22:18;;;;;;;14.20;3.20;;;;;;;6.02;71.39;99561.24;217856;1255;138732;-67
2023/02/21 19:27:23;;;;;;;8.90;4.50;;;;;;;5.95;71.04;99566.44;218353;1257;138591;-66
2023/02/21 19:32:27;;;;;;;11.00;3.30;;;;;;;5.94;71.34;99572.38;218208;1256;139846;-67
2023/02/21 19:37:31;;;;;;;18.20;4.70;;;;;;;5.92;71.04;99575.15;217402;1256;140280;-66
2023/02/21 19:42:36;;;;;;;8.00;4.00;;;;;;;5.91;71.20;99577.96;217913;1257;140525;-66
2023/02/21 19:47:40;;;;;;;7.00;3.10;;;;;;;5.87;71.14;99585.39;217864;1256;138567;-67
2023/02/21 19:52:55;;;;;;;9.20;3.60;;;;;;;5.81;71.03;99587.35;217858;1256;138954;-67
2023/02/21 19:58:07;;;;;;;8.30;4.50;;;;;;;5.83;71.24;99592.27;218758;1256;139110;-66
2023/02/21 20:03:13;;;;;;;7.50;3.40;;;;;;;5.87;70.94;99596.86;217629;1257;139298;-66
2023/02/21 20:08:17;;;;;;;10.50;4.00;;;;;;;5.87;71.21;99596.86;218011;1256;139924;-65
2023/02/21 20:13:21;;;;;;;13.60;4.90;;;;;;;5.82;71.10;99597.45;217582;1259;138887;-66
2023/02/21 20:18:24;;;;;;;11.00;3.80;;;;;;;5.77;71.10;99605.09;218358;1256;139015;-65
2023/02/21 20:23:26;;;;;;;13.70;4.00;;;;;;;5.76;70.96;99607.13;217431;1256;139664;-66
2023/02/21 20:28:29;;;;;;;12.60;4.10;;;;;;;5.79;71.08;99615.99;217537;1256;139573;-68
2023/02/21 20:33:35;;;;;;;13.80;3.20;;;;;;;5.80;71.08;99614.97;220027;1255;433439;-66
2023/02/21 20:38:38;;;;;;;8.50;3.20;;;;;;;5.81;71.03;99612.84;220372;1255;139981;-65
2023/02/21 20:43:42;;;;;;;9.80;3.10;;;;;;;5.77;70.95;99614.93;220425;1255;138869;-66
2023/02/21 20:48:44;;;;;;;10.70;2.60;;;;;;;5.74;70.85;99617.05;220191;1255;139324;-66
2023/02/21 20:53:48;;;;;;;14.90;4.10;;;;;;;5.77;70.82;99617.25;218907;1258;139902;-67
2023/02/21 20:58:50;;;;;;;9.60;3.50;;;;;;;5.82;70.92;99623.80;219350;1255;140351;-66
2023/02/21 21:03:54;;;;;;;14.80;3.50;;;;;;;5.81;70.91;99627.08;217342;1256;138896;-66
2023/02/21 21:08:57;;;;;;;12.40;4.10;;;;;;;5.76;70.99;99629.17;220105;1256;140948;-68
2023/02/21 21:14:03;;;;;;;10.60;3.40;;;;;;;5.69;70.78;99633.77;220401;1256;138426;-66
2023/02/21 21:19:07;;;;;;;14.60;4.20;;;;;;;5.63;71.00;99638.25;218187;1257;138929;-65
2023/02/21 21:24:11;;;;;;;16.20;6.10;;;;;;;5.62;70.93;99640.58;217524;1255;139273;-65
2023/02/21 21:29:17;;;;;;;12.10;5.80;;;;;;;5.56;70.78;99645.52;218370;1256;139229;-66
2023/02/21 21:34:22;;;;;;;11.60;4.90;;;;;;;5.49;70.97;99650.95;217755;1256;139224;-66
2023/02/21 21:39:26;;;;;;;20.10;4.60;;;;;;;5.38;71.16;99652.38;217700;1257;139394;-66
2023/02/21 21:44:29;;;;;;;14.80;5.70;;;;;;;5.25;71.26;99660.17;218945;1255;138972;-66
2023/02/21 21:49:34;;;;;;;12.40;5.00;;;;;;;5.17;71.44;99661.36;217792;1256;139802;-65
2023/02/21 21:54:39;;;;;;;11.90;4.40;;;;;;;5.13;71.50;99661.71;218357;1256;138822;-65
2023/02/21 21:59:47;;;;;;;15.40;4.20;;;;;;;5.10;71.44;99666.50;218810;1255;143379;-66
2023/02/21 22:04:53;;;;;;;10.50;4.70;;;;;;;5.05;71.53;99666.29;217346;1260;139339;-66
2023/02/21 22:09:56;;;;;;;10.30;2.60;;;;;;;4.98;72.03;99667.37;219559;1256;139245;-66
2023/02/21 22:14:59;;;;;;;13.90;5.50;;;;;;;4.88;71.63;99670.07;217983;1255;138483;-66
2023/02/21 22:20:15;;;;;;;10.80;3.90;;;;;;;4.76;71.64;99672.63;217934;1258;139450;-68
2023/02/21 22:25:19;;;;;;;20.20;5.70;;;;;;;4.64;71.86;99684.20;218873;1256;139376;-69
2023/02/21 22:30:24;;;;;;;13.60;5.40;;;;;;;4.59;71.79;99687.64;218627;1258;139923;-68
2023/02/21 22:35:28;;;;;;;15.60;5.40;;;;;;;4.55;72.11;99692.23;220289;1255;139591;-70
2023/02/21 22:40:35;;;;;;;17.30;6.20;;;;;;;4.49;72.00;99700.36;220252;1256;139825;-69
2023/02/21 22:45:39;;;;;;;24.20;6.40;;;;;;;4.43;72.32;99703.20;217848;1256;138981;-68
2023/02/21 22:50:45;;;;;;;18.00;7.30;;;;;;;4.32;72.14;99710.16;219671;1257;139896;-67
2023/02/21 22:55:52;;;;;;;12.20;4.60;;;;;;;4.25;72.46;99714.66;220475;1257;138876;-66
2023/02/21 23:00:58;;;;;;;18.30;4.40;;;;;;;4.17;72.45;99721.66;217521;1256;139432;-66
2023/02/21 23:06:05;;;;;;;12.10;4.70;;;;;;;4.12;72.43;99723.23;217352;1256;138832;-67
2023/02/21 23:11:22;;;;;;;26.80;10.10;;;;;;;4.07;72.87;99727.10;217914;1256;139102;-66
2023/02/21 23:16:26;;;;;;;12.70;4.40;;;;;;;4.04;72.81;99730.29;217397;1257;139065;-67
2023/02/21 23:21:30;;;;;;;11.90;6.50;;;;;;;4.00;73.08;99729.61;217895;1256;139093;-67
2023/02/21 23:26:33;;;;;;;20.50;7.90;;;;;;;3.91;73.21;99733.25;217848;1256;138941;-67
2023/02/21 23:31:37;;;;;;;17.80;7.30;;;;;;;3.81;73.28;99737.17;217712;1259;139891;-67
2023/02/21 23:36:43;;;;;;;26.40;11.20;;;;;;;3.75;73.24;99733.16;218821;1258;139326;-67
2023/02/21 23:41:47;;;;;;;18.00;7.30;;;;;;;3.73;73.21;99739.83;217349;1258;140144;-65
2023/02/21 23:46:52;;;;;;;14.20;5.90;;;;;;;3.65;73.50;99744.69;218183;1258;141221;-66
2023/02/21 23:51:55;;;;;;;19.00;7.30;;;;;;;3.57;73.56;99748.71;219389;1258;140097;-67
2023/02/21 23:56:59;;;;;;;17.40;7.00;;;;;;;3.46;73.40;99752.04;217409;1256;139394;-67
